sensor_id;sensor_type;location;lat;lon;timestamp;P1;durP1;ratioP1;P2;durP2;ratioP2
20619;SDS011;10469;42.720;23.252;2023-09-19T00:00:30;7.15;;;4.88;;
20619;SDS011;10469;42.720;23.252;2023-09-19T00:02:57;10.60;;;4.40;;
20619;SDS011;10469;42.720;23.252;2023-09-19T00:05:33;6.93;;;4.82;;
20619;SDS011;10469;42.720;23.252;2023-09-19T00:08:00;8.00;;;4.65;;
20619;SDS011;10469;42.720;23.252;2023-09-19T00:10:29;6.82;;;4.47;;
20619;SDS011;10469;42.720;23.252;2023-09-19T00:13:00;7.53;;;4.88;;
20619;SDS011;10469;42.720;23.252;2023-09-19T00:15:30;5.63;;;4.35;;
20619;SDS011;10469;42.720;23.252;2023-09-19T00:18:01;9.27;;;4.63;;
20619;SDS011;10469;42.720;23.252;2023-09-19T00:20:26;10.35;;;5.15;;
20619;SDS011;10469;42.720;23.252;2023-09-19T00:22:53;10.02;;;5.22;;
20619;SDS011;10469;42.720;23.252;2023-09-19T00:25:19;5.22;;;4.13;;
20619;SDS011;10469;42.720;23.252;2023-09-19T00:27:45;7.22;;;5.10;;
20619;SDS011;10469;42.720;23.252;2023-09-19T00:30:15;7.20;;;4.78;;
20619;SDS011;10469;42.720;23.252;2023-09-19T00:32:42;9.50;;;4.90;;
20619;SDS011;10469;42.720;23.252;2023-09-19T00:35:08;9.73;;;4.78;;
20619;SDS011;10469;42.720;23.252;2023-09-19T00:37:37;6.78;;;4.82;;
20619;SDS011;10469;42.720;23.252;2023-09-19T00:40:05;7.95;;;4.60;;
20619;SDS011;10469;42.720;23.252;2023-09-19T00:42:40;6.63;;;4.78;;
20619;SDS011;10469;42.720;23.252;2023-09-19T00:45:07;5.72;;;5.10;;
20619;SDS011;10469;42.720;23.252;2023-09-19T00:47:35;5.60;;;4.53;;
20619;SDS011;10469;42.720;23.252;2023-09-19T00:50:02;6.72;;;5.85;;
20619;SDS011;10469;42.720;23.252;2023-09-19T00:52:33;8.30;;;4.63;;
20619;SDS011;10469;42.720;23.252;2023-09-19T00:55:01;11.05;;;4.45;;
20619;SDS011;10469;42.720;23.252;2023-09-19T00:57:28;9.13;;;4.65;;
20619;SDS011;10469;42.720;23.252;2023-09-19T00:59:54;5.63;;;4.70;;
20619;SDS011;10469;42.720;23.252;2023-09-19T01:02:21;7.70;;;5.00;;
20619;SDS011;10469;42.720;23.252;2023-09-19T01:04:47;6.60;;;4.68;;
20619;SDS011;10469;42.720;23.252;2023-09-19T01:07:12;5.53;;;4.90;;
20619;SDS011;10469;42.720;23.252;2023-09-19T01:09:40;6.90;;;5.15;;
20619;SDS011;10469;42.720;23.252;2023-09-19T01:12:06;8.18;;;4.95;;
20619;SDS011;10469;42.720;23.252;2023-09-19T01:22:34;6.63;;;5.15;;
20619;SDS011;10469;42.720;23.252;2023-09-19T01:28:30;6.03;;;5.15;;
20619;SDS011;10469;42.720;23.252;2023-09-19T01:31:01;7.70;;;5.60;;
20619;SDS011;10469;42.720;23.252;2023-09-19T01:33:28;8.65;;;5.00;;
20619;SDS011;10469;42.720;23.252;2023-09-19T01:36:16;8.05;;;5.45;;
20619;SDS011;10469;42.720;23.252;2023-09-19T01:38:41;8.75;;;5.45;;
20619;SDS011;10469;42.720;23.252;2023-09-19T01:41:08;7.13;;;5.60;;
20619;SDS011;10469;42.720;23.252;2023-09-19T01:43:39;9.52;;;5.75;;
20619;SDS011;10469;42.720;23.252;2023-09-19T01:51:37;7.22;;;6.32;;
20619;SDS011;10469;42.720;23.252;2023-09-19T01:54:03;7.22;;;6.00;;
20619;SDS011;10469;42.720;23.252;2023-09-19T01:56:44;8.25;;;6.05;;
20619;SDS011;10469;42.720;23.252;2023-09-19T01:59:24;8.20;;;6.25;;
20619;SDS011;10469;42.720;23.252;2023-09-19T02:01:53;11.65;;;7.22;;
20619;SDS011;10469;42.720;23.252;2023-09-19T02:04:20;10.02;;;6.10;;
20619;SDS011;10469;42.720;23.252;2023-09-19T02:06:45;11.23;;;6.70;;
20619;SDS011;10469;42.720;23.252;2023-09-19T02:09:13;7.20;;;6.40;;
20619;SDS011;10469;42.720;23.252;2023-09-19T02:11:42;7.55;;;6.47;;
20619;SDS011;10469;42.720;23.252;2023-09-19T02:14:07;8.55;;;6.72;;
20619;SDS011;10469;42.720;23.252;2023-09-19T02:16:33;13.45;;;6.65;;
20619;SDS011;10469;42.720;23.252;2023-09-19T02:18:59;11.90;;;6.68;;
20619;SDS011;10469;42.720;23.252;2023-09-19T02:21:25;8.80;;;6.40;;
20619;SDS011;10469;42.720;23.252;2023-09-19T02:23:54;7.25;;;6.32;;
20619;SDS011;10469;42.720;23.252;2023-09-19T02:26:20;10.98;;;6.97;;
20619;SDS011;10469;42.720;23.252;2023-09-19T02:28:47;9.30;;;6.20;;
20619;SDS011;10469;42.720;23.252;2023-09-19T02:31:12;10.70;;;6.45;;
20619;SDS011;10469;42.720;23.252;2023-09-19T02:33:38;10.38;;;6.38;;
20619;SDS011;10469;42.720;23.252;2023-09-19T02:36:03;8.65;;;6.85;;
20619;SDS011;10469;42.720;23.252;2023-09-19T02:38:30;9.48;;;7.07;;
20619;SDS011;10469;42.720;23.252;2023-09-19T02:40:56;11.02;;;7.00;;
20619;SDS011;10469;42.720;23.252;2023-09-19T02:43:22;11.68;;;7.00;;
20619;SDS011;10469;42.720;23.252;2023-09-19T02:45:48;10.82;;;7.07;;
20619;SDS011;10469;42.720;23.252;2023-09-19T02:48:15;11.32;;;6.63;;
20619;SDS011;10469;42.720;23.252;2023-09-19T02:50:41;7.60;;;6.53;;
20619;SDS011;10469;42.720;23.252;2023-09-19T02:53:07;11.23;;;6.82;;
20619;SDS011;10469;42.720;23.252;2023-09-19T02:55:33;12.75;;;6.97;;
20619;SDS011;10469;42.720;23.252;2023-09-19T02:57:59;10.27;;;7.20;;
20619;SDS011;10469;42.720;23.252;2023-09-19T03:00:25;8.05;;;6.82;;
20619;SDS011;10469;42.720;23.252;2023-09-19T03:02:55;9.38;;;7.45;;
20619;SDS011;10469;42.720;23.252;2023-09-19T03:05:21;8.93;;;7.30;;
20619;SDS011;10469;42.720;23.252;2023-09-19T03:07:51;10.57;;;7.20;;
20619;SDS011;10469;42.720;23.252;2023-09-19T03:10:18;12.52;;;7.38;;
20619;SDS011;10469;42.720;23.252;2023-09-19T03:12:46;11.10;;;7.82;;
20619;SDS011;10469;42.720;23.252;2023-09-19T03:15:11;14.63;;;7.53;;
20619;SDS011;10469;42.720;23.252;2023-09-19T03:17:37;16.58;;;7.70;;
20619;SDS011;10469;42.720;23.252;2023-09-19T03:20:03;11.38;;;7.50;;
20619;SDS011;10469;42.720;23.252;2023-09-19T03:22:29;8.52;;;7.45;;
20619;SDS011;10469;42.720;23.252;2023-09-19T03:24:55;10.60;;;7.65;;
20619;SDS011;10469;42.720;23.252;2023-09-19T03:27:20;13.45;;;8.00;;
20619;SDS011;10469;42.720;23.252;2023-09-19T03:29:46;11.30;;;7.97;;
20619;SDS011;10469;42.720;23.252;2023-09-19T03:32:12;13.15;;;7.72;;
20619;SDS011;10469;42.720;23.252;2023-09-19T03:34:38;9.73;;;7.78;;
20619;SDS011;10469;42.720;23.252;2023-09-19T03:37:11;12.85;;;7.32;;
20619;SDS011;10469;42.720;23.252;2023-09-19T03:39:36;11.75;;;7.72;;
20619;SDS011;10469;42.720;23.252;2023-09-19T03:42:02;13.77;;;7.65;;
20619;SDS011;10469;42.720;23.252;2023-09-19T03:44:29;16.48;;;8.13;;
20619;SDS011;10469;42.720;23.252;2023-09-19T03:46:55;17.90;;;8.10;;
20619;SDS011;10469;42.720;23.252;2023-09-19T03:49:22;14.43;;;7.97;;
20619;SDS011;10469;42.720;23.252;2023-09-19T03:51:47;15.25;;;8.02;;
20619;SDS011;10469;42.720;23.252;2023-09-19T03:54:13;9.73;;;7.90;;
20619;SDS011;10469;42.720;23.252;2023-09-19T03:56:38;10.80;;;7.93;;
20619;SDS011;10469;42.720;23.252;2023-09-19T03:59:04;11.35;;;8.75;;
20619;SDS011;10469;42.720;23.252;2023-09-19T04:01:29;14.18;;;8.38;;
20619;SDS011;10469;42.720;23.252;2023-09-19T04:03:57;14.57;;;8.35;;
20619;SDS011;10469;42.720;23.252;2023-09-19T04:06:22;11.88;;;8.05;;
20619;SDS011;10469;42.720;23.252;2023-09-19T04:08:48;18.52;;;8.52;;
20619;SDS011;10469;42.720;23.252;2023-09-19T04:11:14;14.40;;;8.55;;
20619;SDS011;10469;42.720;23.252;2023-09-19T04:13:39;13.18;;;8.18;;
20619;SDS011;10469;42.720;23.252;2023-09-19T04:16:05;12.20;;;8.65;;
20619;SDS011;10469;42.720;23.252;2023-09-19T04:18:32;13.27;;;8.40;;
20619;SDS011;10469;42.720;23.252;2023-09-19T04:20:59;11.32;;;8.65;;
20619;SDS011;10469;42.720;23.252;2023-09-19T04:23:27;16.10;;;9.40;;
20619;SDS011;10469;42.720;23.252;2023-09-19T04:25:53;16.80;;;8.57;;
20619;SDS011;10469;42.720;23.252;2023-09-19T04:28:19;11.73;;;8.02;;
20619;SDS011;10469;42.720;23.252;2023-09-19T04:30:44;13.50;;;9.30;;
20619;SDS011;10469;42.720;23.252;2023-09-19T04:33:10;15.95;;;8.50;;
20619;SDS011;10469;42.720;23.252;2023-09-19T04:35:36;11.95;;;8.82;;
20619;SDS011;10469;42.720;23.252;2023-09-19T04:38:04;13.43;;;8.90;;
20619;SDS011;10469;42.720;23.252;2023-09-19T04:40:31;11.13;;;9.23;;
20619;SDS011;10469;42.720;23.252;2023-09-19T04:42:59;14.73;;;9.60;;
20619;SDS011;10469;42.720;23.252;2023-09-19T04:45:28;21.40;;;10.32;;
20619;SDS011;10469;42.720;23.252;2023-09-19T04:47:54;26.42;;;8.55;;
20619;SDS011;10469;42.720;23.252;2023-09-19T04:50:21;16.23;;;8.75;;
20619;SDS011;10469;42.720;23.252;2023-09-19T04:52:51;20.98;;;9.82;;
20619;SDS011;10469;42.720;23.252;2023-09-19T04:55:19;13.57;;;8.45;;
20619;SDS011;10469;42.720;23.252;2023-09-19T04:57:46;15.30;;;8.85;;
20619;SDS011;10469;42.720;23.252;2023-09-19T05:00:13;13.63;;;7.75;;
20619;SDS011;10469;42.720;23.252;2023-09-19T05:02:48;13.77;;;7.65;;
20619;SDS011;10469;42.720;23.252;2023-09-19T05:05:17;17.88;;;8.82;;
20619;SDS011;10469;42.720;23.252;2023-09-19T05:07:44;13.98;;;8.25;;
20619;SDS011;10469;42.720;23.252;2023-09-19T05:10:11;15.88;;;8.60;;
20619;SDS011;10469;42.720;23.252;2023-09-19T05:12:38;20.58;;;8.35;;
20619;SDS011;10469;42.720;23.252;2023-09-19T05:15:04;19.00;;;9.43;;
20619;SDS011;10469;42.720;23.252;2023-09-19T05:17:32;10.35;;;7.57;;
20619;SDS011;10469;42.720;23.252;2023-09-19T05:20:01;11.02;;;8.40;;
20619;SDS011;10469;42.720;23.252;2023-09-19T05:22:40;17.40;;;8.55;;
20619;SDS011;10469;42.720;23.252;2023-09-19T05:25:06;16.45;;;8.32;;
20619;SDS011;10469;42.720;23.252;2023-09-19T05:27:33;14.05;;;8.52;;
20619;SDS011;10469;42.720;23.252;2023-09-19T05:30:01;17.27;;;8.35;;
20619;SDS011;10469;42.720;23.252;2023-09-19T05:32:27;14.57;;;8.63;;
20619;SDS011;10469;42.720;23.252;2023-09-19T05:34:53;19.42;;;8.13;;
20619;SDS011;10469;42.720;23.252;2023-09-19T05:37:18;15.38;;;7.72;;
20619;SDS011;10469;42.720;23.252;2023-09-19T05:39:45;13.52;;;8.10;;
20619;SDS011;10469;42.720;23.252;2023-09-19T05:42:10;20.90;;;8.57;;
20619;SDS011;10469;42.720;23.252;2023-09-19T05:44:36;11.45;;;7.47;;
20619;SDS011;10469;42.720;23.252;2023-09-19T05:47:02;9.52;;;7.25;;
20619;SDS011;10469;42.720;23.252;2023-09-19T05:49:28;14.48;;;7.43;;
20619;SDS011;10469;42.720;23.252;2023-09-19T05:51:53;12.38;;;8.05;;
20619;SDS011;10469;42.720;23.252;2023-09-19T05:54:21;14.65;;;7.90;;
20619;SDS011;10469;42.720;23.252;2023-09-19T05:56:47;12.20;;;7.80;;
20619;SDS011;10469;42.720;23.252;2023-09-19T05:59:15;12.18;;;8.23;;
20619;SDS011;10469;42.720;23.252;2023-09-19T06:01:41;10.88;;;7.82;;
20619;SDS011;10469;42.720;23.252;2023-09-19T06:04:07;14.45;;;8.60;;
20619;SDS011;10469;42.720;23.252;2023-09-19T06:06:33;11.93;;;8.10;;
20619;SDS011;10469;42.720;23.252;2023-09-19T06:09:06;12.25;;;7.63;;
20619;SDS011;10469;42.720;23.252;2023-09-19T06:11:35;13.43;;;7.65;;
20619;SDS011;10469;42.720;23.252;2023-09-19T06:14:01;16.55;;;8.63;;
20619;SDS011;10469;42.720;23.252;2023-09-19T06:16:30;14.70;;;8.38;;
20619;SDS011;10469;42.720;23.252;2023-09-19T06:18:58;16.95;;;8.85;;
20619;SDS011;10469;42.720;23.252;2023-09-19T06:21:26;15.48;;;8.30;;
20619;SDS011;10469;42.720;23.252;2023-09-19T06:23:53;12.85;;;7.85;;
20619;SDS011;10469;42.720;23.252;2023-09-19T06:26:19;12.32;;;7.60;;
20619;SDS011;10469;42.720;23.252;2023-09-19T06:28:44;13.40;;;7.82;;
20619;SDS011;10469;42.720;23.252;2023-09-19T06:31:10;17.30;;;7.45;;
20619;SDS011;10469;42.720;23.252;2023-09-19T06:33:36;10.07;;;7.45;;
20619;SDS011;10469;42.720;23.252;2023-09-19T06:36:05;15.50;;;7.78;;
20619;SDS011;10469;42.720;23.252;2023-09-19T06:38:32;13.70;;;7.43;;
20619;SDS011;10469;42.720;23.252;2023-09-19T06:41:01;14.25;;;8.35;;
20619;SDS011;10469;42.720;23.252;2023-09-19T06:43:29;15.43;;;7.63;;
20619;SDS011;10469;42.720;23.252;2023-09-19T06:45:56;8.77;;;7.20;;
20619;SDS011;10469;42.720;23.252;2023-09-19T06:48:22;16.15;;;8.50;;
20619;SDS011;10469;42.720;23.252;2023-09-19T06:50:50;16.70;;;7.38;;
20619;SDS011;10469;42.720;23.252;2023-09-19T06:53:16;12.73;;;6.90;;
20619;SDS011;10469;42.720;23.252;2023-09-19T06:55:42;13.45;;;7.63;;
20619;SDS011;10469;42.720;23.252;2023-09-19T06:58:08;8.65;;;6.18;;
20619;SDS011;10469;42.720;23.252;2023-09-19T07:00:35;11.98;;;5.97;;
20619;SDS011;10469;42.720;23.252;2023-09-19T07:03:03;9.00;;;5.72;;
20619;SDS011;10469;42.720;23.252;2023-09-19T07:05:38;9.70;;;5.20;;
20619;SDS011;10469;42.720;23.252;2023-09-19T07:08:05;8.40;;;5.05;;
20619;SDS011;10469;42.720;23.252;2023-09-19T07:10:32;7.65;;;5.20;;
20619;SDS011;10469;42.720;23.252;2023-09-19T07:15:28;9.35;;;4.85;;
20619;SDS011;10469;42.720;23.252;2023-09-19T07:17:55;8.20;;;5.05;;
20619;SDS011;10469;42.720;23.252;2023-09-19T07:20:21;6.22;;;4.85;;
20619;SDS011;10469;42.720;23.252;2023-09-19T07:22:51;8.32;;;5.20;;
20619;SDS011;10469;42.720;23.252;2023-09-19T07:25:16;10.85;;;4.97;;
20619;SDS011;10469;42.720;23.252;2023-09-19T07:27:42;12.63;;;6.38;;
20619;SDS011;10469;42.720;23.252;2023-09-19T07:30:08;10.38;;;6.40;;
20619;SDS011;10469;42.720;23.252;2023-09-19T07:32:35;12.32;;;5.18;;
20619;SDS011;10469;42.720;23.252;2023-09-19T07:35:04;8.35;;;5.90;;
20619;SDS011;10469;42.720;23.252;2023-09-19T07:37:31;8.20;;;5.20;;
20619;SDS011;10469;42.720;23.252;2023-09-19T07:39:58;11.15;;;5.30;;
20619;SDS011;10469;42.720;23.252;2023-09-19T07:42:26;13.90;;;5.45;;
20619;SDS011;10469;42.720;23.252;2023-09-19T07:44:51;16.23;;;6.28;;
20619;SDS011;10469;42.720;23.252;2023-09-19T07:47:19;11.15;;;5.00;;
20619;SDS011;10469;42.720;23.252;2023-09-19T07:49:49;12.73;;;6.22;;
20619;SDS011;10469;42.720;23.252;2023-09-19T07:52:15;16.25;;;6.40;;
20619;SDS011;10469;42.720;23.252;2023-09-19T07:54:40;12.50;;;6.60;;
20619;SDS011;10469;42.720;23.252;2023-09-19T07:57:09;11.45;;;7.13;;
20619;SDS011;10469;42.720;23.252;2023-09-19T07:59:34;12.50;;;6.90;;
20619;SDS011;10469;42.720;23.252;2023-09-19T08:02:01;14.50;;;7.03;;
20619;SDS011;10469;42.720;23.252;2023-09-19T08:04:29;9.85;;;6.25;;
20619;SDS011;10469;42.720;23.252;2023-09-19T08:06:59;14.40;;;6.95;;
20619;SDS011;10469;42.720;23.252;2023-09-19T08:09:25;13.73;;;6.68;;
20619;SDS011;10469;42.720;23.252;2023-09-19T08:11:51;9.40;;;5.65;;
20619;SDS011;10469;42.720;23.252;2023-09-19T08:14:17;11.48;;;7.00;;
20619;SDS011;10469;42.720;23.252;2023-09-19T08:16:42;9.93;;;6.50;;
20619;SDS011;10469;42.720;23.252;2023-09-19T08:19:09;14.05;;;5.60;;
20619;SDS011;10469;42.720;23.252;2023-09-19T08:21:35;15.73;;;5.63;;
20619;SDS011;10469;42.720;23.252;2023-09-19T08:24:01;7.80;;;5.20;;
20619;SDS011;10469;42.720;23.252;2023-09-19T08:26:30;6.82;;;5.05;;
20619;SDS011;10469;42.720;23.252;2023-09-19T08:28:56;9.27;;;5.68;;
20619;SDS011;10469;42.720;23.252;2023-09-19T08:31:22;14.32;;;5.55;;
20619;SDS011;10469;42.720;23.252;2023-09-19T08:33:48;14.85;;;6.15;;
20619;SDS011;10469;42.720;23.252;2023-09-19T08:36:16;13.90;;;5.15;;
20619;SDS011;10469;42.720;23.252;2023-09-19T08:38:42;9.00;;;5.38;;
20619;SDS011;10469;42.720;23.252;2023-09-19T08:41:07;8.50;;;5.85;;
20619;SDS011;10469;42.720;23.252;2023-09-19T08:43:34;9.23;;;4.82;;
20619;SDS011;10469;42.720;23.252;2023-09-19T08:46:09;12.32;;;5.20;;
20619;SDS011;10469;42.720;23.252;2023-09-19T08:48:45;7.07;;;4.93;;
20619;SDS011;10469;42.720;23.252;2023-09-19T08:51:17;9.27;;;5.22;;
20619;SDS011;10469;42.720;23.252;2023-09-19T08:53:51;12.57;;;5.35;;
20619;SDS011;10469;42.720;23.252;2023-09-19T08:56:24;11.30;;;5.38;;
20619;SDS011;10469;42.720;23.252;2023-09-19T08:58:59;12.68;;;5.47;;
20619;SDS011;10469;42.720;23.252;2023-09-19T09:01:37;14.77;;;4.88;;
20619;SDS011;10469;42.720;23.252;2023-09-19T09:04:08;13.70;;;5.47;;
20619;SDS011;10469;42.720;23.252;2023-09-19T09:06:37;7.95;;;5.10;;
20619;SDS011;10469;42.720;23.252;2023-09-19T09:09:04;7.43;;;5.07;;
20619;SDS011;10469;42.720;23.252;2023-09-19T09:11:30;9.98;;;5.25;;
20619;SDS011;10469;42.720;23.252;2023-09-19T09:13:58;10.48;;;5.68;;
20619;SDS011;10469;42.720;23.252;2023-09-19T09:16:24;8.40;;;5.65;;
20619;SDS011;10469;42.720;23.252;2023-09-19T09:18:51;14.38;;;5.35;;
20619;SDS011;10469;42.720;23.252;2023-09-19T09:21:19;8.65;;;5.40;;
20619;SDS011;10469;42.720;23.252;2023-09-19T09:23:47;8.55;;;5.18;;
20619;SDS011;10469;42.720;23.252;2023-09-19T09:26:14;10.30;;;5.75;;
20619;SDS011;10469;42.720;23.252;2023-09-19T09:28:45;8.60;;;5.65;;
20619;SDS011;10469;42.720;23.252;2023-09-19T09:31:22;10.43;;;5.68;;
20619;SDS011;10469;42.720;23.252;2023-09-19T09:33:53;12.98;;;5.63;;
20619;SDS011;10469;42.720;23.252;2023-09-19T09:36:33;10.43;;;5.85;;
20619;SDS011;10469;42.720;23.252;2023-09-19T09:39:01;7.45;;;5.30;;
20619;SDS011;10469;42.720;23.252;2023-09-19T09:41:41;6.88;;;5.07;;
20619;SDS011;10469;42.720;23.252;2023-09-19T09:44:13;10.10;;;5.78;;
20619;SDS011;10469;42.720;23.252;2023-09-19T09:46:43;12.38;;;5.97;;
20619;SDS011;10469;42.720;23.252;2023-09-19T09:49:25;11.88;;;5.97;;
20619;SDS011;10469;42.720;23.252;2023-09-19T09:54:58;15.32;;;5.90;;
20619;SDS011;10469;42.720;23.252;2023-09-19T09:57:32;12.20;;;5.38;;
20619;SDS011;10469;42.720;23.252;2023-09-19T09:59:59;11.07;;;6.50;;
20619;SDS011;10469;42.720;23.252;2023-09-19T10:02:37;10.27;;;5.45;;
20619;SDS011;10469;42.720;23.252;2023-09-19T10:05:12;9.68;;;5.63;;
20619;SDS011;10469;42.720;23.252;2023-09-19T10:07:46;10.43;;;5.88;;
20619;SDS011;10469;42.720;23.252;2023-09-19T10:13:09;8.80;;;5.30;;
20619;SDS011;10469;42.720;23.252;2023-09-19T10:15:43;10.98;;;5.75;;
20619;SDS011;10469;42.720;23.252;2023-09-19T10:18:17;11.00;;;6.20;;
20619;SDS011;10469;42.720;23.252;2023-09-19T10:20:46;9.05;;;4.97;;
20619;SDS011;10469;42.720;23.252;2023-09-19T10:23:13;9.27;;;5.50;;
20619;SDS011;10469;42.720;23.252;2023-09-19T10:25:47;11.27;;;5.90;;
20619;SDS011;10469;42.720;23.252;2023-09-19T10:28:14;12.65;;;6.18;;
20619;SDS011;10469;42.720;23.252;2023-09-19T10:30:45;11.60;;;5.85;;
20619;SDS011;10469;42.720;23.252;2023-09-19T10:33:16;9.13;;;5.78;;
20619;SDS011;10469;42.720;23.252;2023-09-19T10:35:45;14.15;;;6.03;;
20619;SDS011;10469;42.720;23.252;2023-09-19T10:38:15;10.70;;;6.13;;
20619;SDS011;10469;42.720;23.252;2023-09-19T10:40:50;9.90;;;5.60;;
20619;SDS011;10469;42.720;23.252;2023-09-19T10:43:20;13.98;;;5.82;;
20619;SDS011;10469;42.720;23.252;2023-09-19T10:45:51;10.95;;;5.72;;
20619;SDS011;10469;42.720;23.252;2023-09-19T10:48:20;12.25;;;5.97;;
20619;SDS011;10469;42.720;23.252;2023-09-19T10:50:58;9.43;;;6.00;;
20619;SDS011;10469;42.720;23.252;2023-09-19T10:53:29;13.10;;;5.70;;
20619;SDS011;10469;42.720;23.252;2023-09-19T10:56:07;12.77;;;5.97;;
20619;SDS011;10469;42.720;23.252;2023-09-19T10:58:42;13.05;;;6.38;;
20619;SDS011;10469;42.720;23.252;2023-09-19T11:01:09;11.75;;;5.75;;
20619;SDS011;10469;42.720;23.252;2023-09-19T11:03:43;16.98;;;6.35;;
20619;SDS011;10469;42.720;23.252;2023-09-19T11:08:51;16.92;;;5.95;;
20619;SDS011;10469;42.720;23.252;2023-09-19T11:14:14;7.72;;;5.28;;
20619;SDS011;10469;42.720;23.252;2023-09-19T11:30:39;12.57;;;5.43;;
20619;SDS011;10469;42.720;23.252;2023-09-19T11:36:03;6.57;;;5.35;;
20619;SDS011;10469;42.720;23.252;2023-09-19T11:43:46;15.20;;;5.85;;
20619;SDS011;10469;42.720;23.252;2023-09-19T11:46:16;6.00;;;5.00;;
20619;SDS011;10469;42.720;23.252;2023-09-19T11:48:47;14.85;;;6.10;;
20619;SDS011;10469;42.720;23.252;2023-09-19T11:51:15;17.73;;;11.05;;
20619;SDS011;10469;42.720;23.252;2023-09-19T11:53:49;9.98;;;5.13;;
20619;SDS011;10469;42.720;23.252;2023-09-19T11:56:16;13.93;;;6.65;;
20619;SDS011;10469;42.720;23.252;2023-09-19T11:58:43;14.95;;;8.40;;
20619;SDS011;10469;42.720;23.252;2023-09-19T12:01:12;14.75;;;5.47;;
20619;SDS011;10469;42.720;23.252;2023-09-19T12:03:46;10.18;;;5.55;;
20619;SDS011;10469;42.720;23.252;2023-09-19T12:06:15;12.02;;;5.45;;
20619;SDS011;10469;42.720;23.252;2023-09-19T12:08:42;12.93;;;5.07;;
20619;SDS011;10469;42.720;23.252;2023-09-19T12:11:13;9.27;;;5.03;;
20619;SDS011;10469;42.720;23.252;2023-09-19T12:13:44;13.32;;;5.72;;
20619;SDS011;10469;42.720;23.252;2023-09-19T12:16:13;10.38;;;5.13;;
20619;SDS011;10469;42.720;23.252;2023-09-19T12:18:40;8.05;;;5.55;;
20619;SDS011;10469;42.720;23.252;2023-09-19T12:21:20;19.83;;;5.57;;
20619;SDS011;10469;42.720;23.252;2023-09-19T12:24:25;8.70;;;5.72;;
20619;SDS011;10469;42.720;23.252;2023-09-19T12:26:45;7.57;;;5.43;;
20619;SDS011;10469;42.720;23.252;2023-09-19T12:32:05;12.55;;;5.47;;
20619;SDS011;10469;42.720;23.252;2023-09-19T12:34:31;13.40;;;4.72;;
20619;SDS011;10469;42.720;23.252;2023-09-19T12:37:05;14.00;;;5.85;;
20619;SDS011;10469;42.720;23.252;2023-09-19T12:39:39;8.88;;;5.43;;
20619;SDS011;10469;42.720;23.252;2023-09-19T12:42:07;10.75;;;5.78;;
20619;SDS011;10469;42.720;23.252;2023-09-19T12:44:40;6.50;;;5.20;;
20619;SDS011;10469;42.720;23.252;2023-09-19T12:47:15;13.15;;;5.85;;
20619;SDS011;10469;42.720;23.252;2023-09-19T12:52:38;9.57;;;6.07;;
20619;SDS011;10469;42.720;23.252;2023-09-19T12:55:05;10.40;;;6.50;;
20619;SDS011;10469;42.720;23.252;2023-09-19T12:57:36;10.18;;;5.80;;
20619;SDS011;10469;42.720;23.252;2023-09-19T13:00:02;8.00;;;5.40;;
20619;SDS011;10469;42.720;23.252;2023-09-19T13:02:30;10.15;;;5.30;;
20619;SDS011;10469;42.720;23.252;2023-09-19T13:04:56;9.80;;;5.50;;
20619;SDS011;10469;42.720;23.252;2023-09-19T13:07:41;16.75;;;5.60;;
20619;SDS011;10469;42.720;23.252;2023-09-19T13:10:09;8.57;;;5.20;;
20619;SDS011;10469;42.720;23.252;2023-09-19T13:12:36;11.98;;;5.85;;
20619;SDS011;10469;42.720;23.252;2023-09-19T13:17:48;11.82;;;5.60;;
20619;SDS011;10469;42.720;23.252;2023-09-19T13:20:23;23.88;;;6.75;;
20619;SDS011;10469;42.720;23.252;2023-09-19T13:22:52;13.55;;;6.22;;
20619;SDS011;10469;42.720;23.252;2023-09-19T13:25:19;10.40;;;5.82;;
20619;SDS011;10469;42.720;23.252;2023-09-19T13:27:50;11.27;;;5.60;;
20619;SDS011;10469;42.720;23.252;2023-09-19T13:30:19;12.20;;;5.65;;
20619;SDS011;10469;42.720;23.252;2023-09-19T13:32:45;10.25;;;5.35;;
20619;SDS011;10469;42.720;23.252;2023-09-19T13:35:15;7.50;;;5.30;;
20619;SDS011;10469;42.720;23.252;2023-09-19T13:37:41;22.05;;;5.78;;
20619;SDS011;10469;42.720;23.252;2023-09-19T13:40:11;10.07;;;5.70;;
20619;SDS011;10469;42.720;23.252;2023-09-19T13:42:38;8.38;;;5.78;;
20619;SDS011;10469;42.720;23.252;2023-09-19T13:45:05;9.10;;;5.88;;
20619;SDS011;10469;42.720;23.252;2023-09-19T13:47:31;24.95;;;5.50;;
20619;SDS011;10469;42.720;23.252;2023-09-19T13:49:58;8.40;;;5.32;;
20619;SDS011;10469;42.720;23.252;2023-09-19T13:52:29;9.43;;;5.40;;
20619;SDS011;10469;42.720;23.252;2023-09-19T13:54:55;9.02;;;5.95;;
20619;SDS011;10469;42.720;23.252;2023-09-19T13:57:25;8.93;;;5.47;;
20619;SDS011;10469;42.720;23.252;2023-09-19T13:59:52;10.77;;;5.10;;
20619;SDS011;10469;42.720;23.252;2023-09-19T14:02:23;8.88;;;5.55;;
20619;SDS011;10469;42.720;23.252;2023-09-19T14:04:49;9.85;;;5.07;;
20619;SDS011;10469;42.720;23.252;2023-09-19T14:07:15;9.20;;;5.68;;
20619;SDS011;10469;42.720;23.252;2023-09-19T14:09:43;10.18;;;5.70;;
20619;SDS011;10469;42.720;23.252;2023-09-19T14:12:09;10.80;;;5.25;;
20619;SDS011;10469;42.720;23.252;2023-09-19T14:14:35;7.35;;;5.55;;
20619;SDS011;10469;42.720;23.252;2023-09-19T14:17:02;7.05;;;4.90;;
20619;SDS011;10469;42.720;23.252;2023-09-19T14:19:28;6.72;;;5.68;;
20619;SDS011;10469;42.720;23.252;2023-09-19T14:21:54;9.05;;;5.82;;
20619;SDS011;10469;42.720;23.252;2023-09-19T14:24:23;7.28;;;5.55;;
20619;SDS011;10469;42.720;23.252;2023-09-19T14:27:12;10.90;;;5.80;;
20619;SDS011;10469;42.720;23.252;2023-09-19T14:29:39;9.75;;;6.18;;
20619;SDS011;10469;42.720;23.252;2023-09-19T14:32:06;11.00;;;5.70;;
20619;SDS011;10469;42.720;23.252;2023-09-19T14:34:37;9.82;;;5.88;;
20619;SDS011;10469;42.720;23.252;2023-09-19T14:37:07;11.48;;;5.68;;
20619;SDS011;10469;42.720;23.252;2023-09-19T14:39:33;9.05;;;5.03;;
20619;SDS011;10469;42.720;23.252;2023-09-19T14:41:58;10.50;;;5.38;;
20619;SDS011;10469;42.720;23.252;2023-09-19T14:44:24;14.80;;;5.53;;
20619;SDS011;10469;42.720;23.252;2023-09-19T14:46:50;12.50;;;5.28;;
20619;SDS011;10469;42.720;23.252;2023-09-19T14:49:16;7.65;;;5.13;;
20619;SDS011;10469;42.720;23.252;2023-09-19T14:51:42;12.50;;;6.30;;
20619;SDS011;10469;42.720;23.252;2023-09-19T14:54:32;7.53;;;5.40;;
20619;SDS011;10469;42.720;23.252;2023-09-19T14:56:59;9.60;;;5.88;;
20619;SDS011;10469;42.720;23.252;2023-09-19T14:59:33;6.47;;;5.20;;
20619;SDS011;10469;42.720;23.252;2023-09-19T15:02:06;9.80;;;5.90;;
20619;SDS011;10469;42.720;23.252;2023-09-19T15:04:32;8.80;;;6.18;;
20619;SDS011;10469;42.720;23.252;2023-09-19T15:06:58;7.25;;;5.13;;
20619;SDS011;10469;42.720;23.252;2023-09-19T15:09:24;9.50;;;6.20;;
20619;SDS011;10469;42.720;23.252;2023-09-19T15:11:51;11.13;;;5.72;;
20619;SDS011;10469;42.720;23.252;2023-09-19T15:14:21;11.05;;;6.25;;
20619;SDS011;10469;42.720;23.252;2023-09-19T15:16:47;15.95;;;5.95;;
20619;SDS011;10469;42.720;23.252;2023-09-19T15:19:13;8.30;;;5.88;;
20619;SDS011;10469;42.720;23.252;2023-09-19T15:21:40;11.93;;;6.13;;
20619;SDS011;10469;42.720;23.252;2023-09-19T15:24:06;10.50;;;5.80;;
20619;SDS011;10469;42.720;23.252;2023-09-19T15:26:35;10.05;;;5.60;;
20619;SDS011;10469;42.720;23.252;2023-09-19T15:29:07;8.45;;;5.63;;
20619;SDS011;10469;42.720;23.252;2023-09-19T15:31:34;9.77;;;5.72;;
20619;SDS011;10469;42.720;23.252;2023-09-19T15:34:03;9.57;;;6.25;;